createdAt,value
2023-02-19T00:00:03.133Z,0
2023-02-19T00:05:03.045Z,0
2023-02-19T00:10:02.507Z,0
2023-02-19T00:15:03.267Z,0
2023-02-19T00:20:03.036Z,0
2023-02-19T00:25:02.791Z,0
2023-02-19T00:30:02.882Z,0
2023-02-19T00:35:02.712Z,0
2023-02-19T00:40:02.478Z,0
2023-02-19T00:45:03.262Z,0
2023-02-19T00:50:02.948Z,0
2023-02-19T00:55:03.462Z,0
2023-02-19T01:00:02.557Z,0
2023-02-19T01:05:03.278Z,0
2023-02-19T01:10:02.990Z,0
2023-02-19T01:15:03.380Z,0
2023-02-19T01:20:03.183Z,0
2023-02-19T01:25:03.336Z,0
2023-02-19T01:30:03.322Z,0
2023-02-19T01:35:02.884Z,0
2023-02-19T01:40:02.603Z,0
2023-02-19T01:45:02.439Z,0
2023-02-19T01:50:03.072Z,0
2023-02-19T01:55:03.086Z,0
2023-02-19T02:00:02.699Z,0
2023-02-19T02:05:02.408Z,0
2023-02-19T02:10:03.211Z,0
2023-02-19T02:15:03.566Z,0
2023-02-19T02:20:03.100Z,0
2023-02-19T02:25:02.957Z,0
2023-02-19T02:35:03.445Z,0
2023-02-19T02:40:03.066Z,0
2023-02-19T02:45:03.006Z,0
2023-02-19T02:50:02.749Z,0
2023-02-19T02:55:03.243Z,0
2023-02-19T03:00:03.197Z,0
2023-02-19T03:05:02.894Z,0
2023-02-19T03:10:03.129Z,0
2023-02-19T03:15:02.855Z,0
2023-02-19T03:20:02.857Z,0
2023-02-19T03:25:02.556Z,0
2023-02-19T03:30:03.369Z,0
2023-02-19T03:35:02.915Z,0
2023-02-19T03:40:02.956Z,0
2023-02-19T03:45:02.606Z,0
2023-02-19T03:50:03.233Z,0
2023-02-19T03:55:03.610Z,0
2023-02-19T04:00:02.779Z,0
2023-02-19T04:05:02.566Z,0
2023-02-19T04:10:02.748Z,0
2023-02-19T04:15:02.754Z,0
2023-02-19T04:20:02.802Z,0
2023-02-19T04:30:03.379Z,0
2023-02-19T04:35:02.975Z,0
2023-02-19T04:40:02.922Z,0
2023-02-19T04:45:02.663Z,0
2023-02-19T04:50:03.137Z,0
2023-02-19T04:55:03.720Z,0
2023-02-19T05:00:02.733Z,0
2023-02-19T05:05:02.802Z,0
2023-02-19T05:10:03.116Z,0
2023-02-19T05:15:03.258Z,0
2023-02-19T05:20:03.160Z,0
2023-02-19T05:25:03.045Z,0
2023-02-19T05:30:03.198Z,0
2023-02-19T05:35:02.732Z,0
2023-02-19T05:40:02.765Z,0
2023-02-19T05:45:02.824Z,0.34
2023-02-19T05:50:02.631Z,1.47
2023-02-19T05:55:03.978Z,5.21
2023-02-19T06:00:03.046Z,5
2023-02-19T06:05:02.713Z,16.67
2023-02-19T06:10:02.534Z,20
2023-02-19T06:15:03.205Z,38.33
2023-02-19T06:20:02.955Z,98.33
2023-02-19T06:25:02.724Z,153.33
2023-02-19T06:30:02.890Z,133.33
2023-02-19T06:35:02.993Z,175
2023-02-19T06:40:02.929Z,213.33
2023-02-19T06:45:02.693Z,386.67
2023-02-19T06:50:02.795Z,426.67
2023-02-19T06:55:03.620Z,556.67
2023-02-19T07:00:02.823Z,828.33
2023-02-19T07:05:03.230Z,1126.67
2023-02-19T07:10:03.039Z,1066.67
2023-02-19T07:15:02.744Z,1571.67
2023-02-19T07:20:02.675Z,1620
2023-02-19T07:25:02.477Z,2653.33
2023-02-19T07:30:03.317Z,601.67
2023-02-19T07:35:02.916Z,821.67
2023-02-19T07:40:03.164Z,693.33
2023-02-19T07:45:03.272Z,1640
2023-02-19T07:50:02.969Z,2341.67
2023-02-19T07:55:03.490Z,1961.67
2023-02-19T08:00:02.662Z,1746.67
2023-02-19T08:05:02.630Z,1540
2023-02-19T08:10:02.402Z,3096.67
2023-02-19T08:15:03.368Z,3640
2023-02-19T08:20:03.078Z,5326.67
2023-02-19T08:25:02.563Z,4906.67
2023-02-19T08:30:02.654Z,4903.33
2023-02-19T08:35:03.283Z,5926.67
2023-02-19T08:40:02.953Z,5155
2023-02-19T08:45:02.842Z,6060
2023-02-19T08:50:02.708Z,5913.33
2023-02-19T08:55:02.893Z,4960
2023-02-19T09:00:03.314Z,9906.67
2023-02-19T09:05:02.959Z,9011.67
2023-02-19T09:10:02.988Z,11975
2023-02-19T09:15:02.781Z,6108.33
2023-02-19T09:20:02.545Z,5826.67
2023-02-19T09:25:03.283Z,6336.67
2023-02-19T09:30:03.407Z,8303.33
2023-02-19T09:35:03.055Z,7466.67
2023-02-19T09:40:02.832Z,8540
2023-02-19T09:45:02.472Z,11508.33
2023-02-19T09:50:02.571Z,10880
2023-02-19T09:55:02.789Z,10435
2023-02-19T10:00:03.328Z,12665
2023-02-19T10:05:03.107Z,28390
2023-02-19T10:10:03.225Z,11991.67
2023-02-19T10:15:02.909Z,30050
2023-02-19T10:20:02.610Z,29596.67
2023-02-19T10:25:02.469Z,27430
2023-02-19T10:30:03.353Z,30820
2023-02-19T10:35:02.985Z,13008.33
2023-02-19T10:40:02.942Z,7201.67
2023-02-19T10:45:02.985Z,33440
2023-02-19T10:50:05.033Z,7418.33
2023-02-19T10:55:02.707Z,36493.33
2023-02-19T11:00:03.247Z,40296.67
2023-02-19T11:05:02.994Z,8633.33
2023-02-19T11:10:02.822Z,8575
2023-02-19T11:15:02.764Z,10330
2023-02-19T11:20:02.595Z,29653.33
2023-02-19T11:25:03.523Z,13025
2023-02-19T12:30:02.628Z,27733.33
2023-02-19T12:35:02.584Z,28166.67
2023-02-19T12:40:02.706Z,32726.67
2023-02-19T12:45:03.380Z,31086.67
2023-02-19T12:50:03.229Z,5388.33
2023-02-19T12:55:03.301Z,28353.33
2023-02-19T13:00:02.849Z,30216.67
2023-02-19T13:05:02.562Z,31120
2023-02-19T13:10:02.506Z,28150
2023-02-19T13:15:03.298Z,2958.33
2023-02-19T13:20:03.059Z,13181.67
2023-02-19T13:25:02.931Z,5303.33
2023-02-19T13:30:03.214Z,11021.67
2023-02-19T13:35:02.572Z,9451.67
2023-02-19T13:40:02.350Z,8530
2023-02-19T13:45:03.334Z,10291.67
2023-02-19T13:50:03.284Z,8286.67
2023-02-19T13:55:03.475Z,8836.67
2023-02-19T14:00:02.541Z,9758.33
2023-02-19T14:05:03.299Z,9825
2023-02-19T14:10:03.022Z,4383.33
2023-02-19T14:15:02.803Z,3443.33
2023-02-19T14:20:02.551Z,3475
2023-02-19T14:25:03.329Z,3070
2023-02-19T14:30:03.238Z,4681.67
2023-02-19T14:35:03.118Z,3525
2023-02-19T14:40:02.898Z,4390
2023-02-19T14:45:02.683Z,2163.33
2023-02-19T14:50:02.464Z,4208.33
2023-02-19T14:55:04.091Z,5181.67
2023-02-19T15:00:03.313Z,5096.67
2023-02-19T15:05:03.020Z,4633.33
2023-02-19T15:10:05.466Z,3916.67
2023-02-19T15:15:02.796Z,3485
2023-02-19T15:20:02.957Z,3208.33
2023-02-19T15:25:02.463Z,2606.67
2023-02-19T15:30:03.556Z,2868.33
2023-02-19T15:35:03.112Z,2211.67
2023-02-19T15:40:02.847Z,2033.33
2023-02-19T15:45:02.552Z,2176.67
2023-02-19T15:50:03.309Z,1331.67
2023-02-19T15:55:02.968Z,1293.33
2023-02-19T16:00:03.271Z,1076.67
2023-02-19T16:05:02.768Z,898.33
2023-02-19T16:10:02.580Z,673.33
2023-02-19T16:15:02.442Z,508.33
2023-02-19T16:20:02.477Z,326.67
2023-02-19T16:25:03.188Z,206.67
2023-02-19T16:30:03.163Z,138.33
2023-02-19T16:35:02.755Z,76.67
2023-02-19T16:40:02.417Z,43.33
2023-02-19T16:45:03.205Z,21.67
2023-02-19T16:50:02.873Z,8.33
2023-02-19T16:55:03.066Z,7.81
2023-02-19T17:00:03.305Z,3.17
2023-02-19T17:05:03.036Z,1.13
2023-02-19T17:10:02.771Z,0.34
2023-02-19T17:15:02.976Z,0
2023-02-19T17:20:02.643Z,0
2023-02-19T17:25:03.334Z,0
2023-02-19T17:30:03.353Z,0
2023-02-19T17:35:02.785Z,0
2023-02-19T17:40:02.524Z,0
2023-02-19T17:45:02.616Z,0
2023-02-19T17:50:02.488Z,0
2023-02-19T17:55:03.700Z,0
2023-02-19T18:00:03.205Z,0
2023-02-19T18:05:02.850Z,0
2023-02-19T18:10:02.754Z,0
2023-02-19T18:15:02.480Z,0
2023-02-19T18:20:03.124Z,0
2023-02-19T18:25:03.232Z,0
2023-02-19T18:30:03.079Z,0
2023-02-19T18:35:02.626Z,0
2023-02-19T18:40:02.612Z,0
2023-02-19T18:45:03.372Z,0
2023-02-19T18:50:03.192Z,0
2023-02-19T18:55:03.455Z,0
2023-02-19T19:00:02.622Z,0
2023-02-19T19:05:03.281Z,0
2023-02-19T19:10:02.981Z,0
2023-02-19T19:15:02.688Z,0
2023-02-19T19:20:02.607Z,0
2023-02-19T19:25:02.692Z,0
2023-02-19T19:30:02.605Z,0
2023-02-19T19:35:02.362Z,0
2023-02-19T19:40:03.125Z,0
2023-02-19T19:45:03.156Z,0
2023-02-19T19:50:02.688Z,0
2023-02-19T19:55:03.131Z,0
2023-02-19T20:00:03.214Z,0
2023-02-19T20:05:03.038Z,0
2023-02-19T20:10:03.069Z,0
2023-02-19T20:15:03.052Z,0
2023-02-19T20:20:02.760Z,0
2023-02-19T20:25:02.933Z,0
2023-02-19T20:30:02.506Z,0
2023-02-19T20:35:03.224Z,0
2023-02-19T20:40:02.970Z,0
2023-02-19T20:45:02.922Z,0
2023-02-19T20:50:02.467Z,0
2023-02-19T20:55:03.318Z,0
2023-02-19T21:00:02.627Z,0
2023-02-19T21:05:03.291Z,0
2023-02-19T21:10:02.979Z,0
2023-02-19T21:15:02.826Z,0
2023-02-19T21:20:02.632Z,0
2023-02-19T21:25:02.630Z,0
2023-02-19T21:30:02.533Z,0
2023-02-19T21:35:02.393Z,0
2023-02-19T21:40:02.517Z,0
2023-02-19T21:45:03.495Z,0
2023-02-19T21:50:03.020Z,0
2023-02-19T21:55:03.769Z,0
2023-02-19T22:00:02.584Z,0
2023-02-19T22:05:03.260Z,0
2023-02-19T22:10:02.974Z,0
2023-02-19T22:15:03.016Z,0
2023-02-19T22:20:02.910Z,0
2023-02-19T22:25:02.622Z,0
2023-02-19T22:30:02.601Z,0
2023-02-19T22:35:03.312Z,0
2023-02-19T22:40:03.172Z,0
2023-02-19T22:45:02.769Z,0
2023-02-19T22:50:02.522Z,0
2023-02-19T22:55:04.076Z,0
2023-02-19T23:00:03.297Z,0
2023-02-19T23:05:03.142Z,0
2023-02-19T23:10:02.847Z,0
2023-02-19T23:15:02.591Z,0
2023-02-19T23:20:02.466Z,0
2023-02-19T23:25:03.395Z,0
2023-02-19T23:30:03.326Z,0
2023-02-19T23:35:02.430Z,0
2023-02-19T23:40:03.211Z,0
2023-02-19T23:45:02.968Z,0
2023-02-19T23:50:02.800Z,0
2023-02-19T23:55:03.091Z,0
